Time;durP1;ratioP1;P1;durP2;ratioP2;P2;SDS_P1;SDS_P2;PMS_P1;PMS_P2;Temp;Humidity;BMP_temperature;BMP_pressure;BME280_temperature;BME280_humidity;BME280_pressure;Samples;Min_cycle;Max_cycle;Signal;HPM_P1;HPM_P2
2023/07/05 00:01:29;;;;;;;20.70;9.55;;;;;;;;;;2539696;23;20009;-93
2023/07/05 00:02:55;;;;;;;17.02;9.13;;;;;;;;;;2544405;23;20108;-93
2023/07/05 00:04:19;;;;;;;18.48;9.63;;;;;;;;;;2542746;23;20012;-93
2023/07/05 00:05:56;;;;;;;14.75;8.70;;;;;;;;;;2540011;23;20021;-93
2023/07/05 00:07:25;;;;;;;18.27;9.48;;;;;;;;;;2542442;23;20017;-94
2023/07/05 00:09:09;;;;;;;32.40;12.15;;;;;;;;;;2529773;23;20013;-94
2023/07/05 00:10:42;;;;;;;16.38;8.90;;;;;;;;;;2543450;23;20006;-93
2023/07/05 00:12:19;;;;;;;15.73;8.38;;;;;;;;;;2542142;23;20018;-94
2023/07/05 00:13:40;;;;;;;20.40;9.10;;;;;;;;;;2542065;23;20005;-94
2023/07/05 00:15:04;;;;;;;16.70;8.40;;;;;;;;;;2542389;23;20005;-94
2023/07/05 00:16:28;;;;;;;14.07;8.32;;;;;;;;;;2539562;23;20009;-93
2023/07/05 00:18:00;;;;;;;40.00;15.68;;;;;;;;;;2524407;23;20013;-93
2023/07/05 00:19:24;;;;;;;14.27;8.60;;;;;;;;;;2531816;23;20017;-93
2023/07/05 00:20:45;;;;;;;19.35;8.50;;;;;;;;;;2541907;23;20009;-94
2023/07/05 00:22:29;;;;;;;13.65;8.27;;;;;;;;;;2538869;23;20005;-94
2023/07/05 00:23:53;;;;;;;13.95;8.48;;;;;;;;;;2543927;23;20297;-94
2023/07/05 00:25:14;;;;;;;16.00;8.32;;;;;;;;;;2542394;23;20010;-93
2023/07/05 00:26:41;;;;;;;17.55;8.18;;;;;;;;;;2539084;23;20056;-94
2023/07/05 00:28:04;;;;;;;30.02;11.02;;;;;;;;;;2521845;23;20014;-93
2023/07/05 00:29:46;;;;;;;17.13;8.57;;;;;;;;;;2529315;23;20018;-93
2023/07/05 00:31:12;;;;;;;14.35;8.65;;;;;;;;;;2533930;23;20010;-93
2023/07/05 00:32:33;;;;;;;13.45;8.00;;;;;;;;;;2537671;23;20058;-92
2023/07/05 00:33:54;;;;;;;14.05;8.35;;;;;;;;;;2542048;23;20009;-93
2023/07/05 00:35:15;;;;;;;15.52;8.15;;;;;;;;;;2541359;23;20235;-94
2023/07/05 00:36:39;;;;;;;15.35;8.65;;;;;;;;;;2539599;23;20029;-93
2023/07/05 00:38:00;;;;;;;59.42;21.38;;;;;;;;;;2519527;23;20009;-93
2023/07/05 00:39:30;;;;;;;15.80;8.07;;;;;;;;;;2528943;23;20006;-93
2023/07/05 00:40:54;;;;;;;13.32;7.20;;;;;;;;;;2540865;23;20017;-94
2023/07/05 00:42:15;;;;;;;16.08;7.75;;;;;;;;;;2542666;23;20006;-93
2023/07/05 00:43:45;;;;;;;12.40;7.15;;;;;;;;;;2540441;23;20009;-93
2023/07/05 00:45:09;;;;;;;16.55;8.18;;;;;;;;;;2542171;23;20282;-94
2023/07/05 00:46:31;;;;;;;14.05;7.95;;;;;;;;;;2543419;23;20013;-93
2023/07/05 00:47:52;;;;;;;18.60;7.93;;;;;;;;;;2540000;23;20427;-93
2023/07/05 00:49:14;;;;;;;11.48;7.05;;;;;;;;;;2540473;23;20450;-93
2023/07/05 00:50:37;;;;;;;12.05;7.75;;;;;;;;;;2540814;23;20017;-93
2023/07/05 00:52:01;;;;;;;12.38;7.15;;;;;;;;;;2540890;23;20028;-93
2023/07/05 00:53:23;;;;;;;15.07;7.97;;;;;;;;;;2540431;23;20395;-93
2023/07/05 00:54:49;;;;;;;18.25;8.00;;;;;;;;;;2540698;23;20161;-93
2023/07/05 00:56:42;;;;;;;12.00;7.10;;;;;;;;;;2543519;23;20024;-93
2023/07/05 00:58:13;;;;;;;57.03;19.73;;;;;;;;;;2523825;23;20072;-93
2023/07/05 00:59:43;;;;;;;14.27;7.47;;;;;;;;;;2526861;23;20025;-94
2023/07/05 01:01:07;;;;;;;18.35;7.72;;;;;;;;;;2529718;23;20010;-92
2023/07/05 01:02:29;;;;;;;12.38;7.13;;;;;;;;;;2529110;23;20021;-92
2023/07/05 19:10:08;;;;;;;;;;;;;;;;;;2531307;23;20026;-92
2023/07/05 19:11:32;;;;;;;18.92;9.15;;;;;;;;;;2529848;23;19909;-92
2023/07/05 19:13:11;;;;;;;12.77;7.13;;;;;;;;;;2518453;23;20014;-92
2023/07/05 19:16:35;;;;;;;20.73;8.70;;;;;;;;;;2518392;23;20006;-93
2023/07/05 19:18:02;;;;;;;18.50;8.43;;;;;;;;;;2506296;23;20010;-93
2023/07/05 19:19:39;;;;;;;14.60;7.60;;;;;;;;;;2503123;23;20041;-93
2023/07/05 19:21:18;;;;;;;16.10;9.30;;;;;;;;;;2517515;23;20011;-93
2023/07/05 19:22:44;;;;;;;19.60;8.55;;;;;;;;;;2503720;23;20015;-94
2023/07/05 19:24:06;;;;;;;30.95;11.30;;;;;;;;;;2471973;23;20035;-93
2023/07/05 19:26:02;;;;;;;12.52;8.02;;;;;;;;;;2503695;23;20015;-93
2023/07/05 19:27:36;;;;;;;;;;;;;;;;;;;;;
2023/07/05 19:29:32;;;;;;;14.98;7.85;;;;;;;;;;2516876;23;20542;-93
2023/07/05 19:34:45;;;;;;;34.95;13.02;;;;;;;;;;2446777;23;20013;-94
2023/07/05 19:36:16;;;;;;;;;;;;;;;;;;;;;
2023/07/05 19:37:52;;;;;;;15.82;8.02;;;;;;;;;;2517994;23;20014;-93
2023/07/05 19:39:21;;;;;;;25.42;9.82;;;;;;;;;;2505369;23;20015;-93
2023/07/05 19:41:02;;;;;;;15.70;8.45;;;;;;;;;;2505789;23;20488;-93
2023/07/05 19:44:58;;;;;;;;;;;;;;;;;;;;;
2023/07/05 19:46:34;;;;;;;14.45;7.80;;;;;;;;;;2529889;23;20041;-92
2023/07/05 19:50:33;;;;;;;20.38;9.70;;;;;;;;;;2531388;23;20069;-94
2023/07/05 19:58:28;;;;;;;21.75;9.73;;;;;;;;;;2487596;23;20396;-93
2023/07/05 20:02:00;;;;;;;27.48;10.52;;;;;;;;;;2475010;24;20054;-93
